sensor_id;sensor_type;location;lat;lon;timestamp;P1;durP1;ratioP1;P2;durP2;ratioP2
8596;SDS011;4336;49.310;8.646;2023-03-30T00:02:20;14.80;;;9.63;;
8596;SDS011;4336;49.310;8.646;2023-03-30T00:04:50;11.70;;;10.07;;
8596;SDS011;4336;49.310;8.646;2023-03-30T00:07:17;15.57;;;9.93;;
8596;SDS011;4336;49.310;8.646;2023-03-30T00:09:43;15.83;;;8.60;;
8596;SDS011;4336;49.310;8.646;2023-03-30T00:12:11;16.37;;;9.80;;
8596;SDS011;4336;49.310;8.646;2023-03-30T00:14:37;16.17;;;10.10;;
8596;SDS011;4336;49.310;8.646;2023-03-30T00:17:06;13.00;;;9.73;;
8596;SDS011;4336;49.310;8.646;2023-03-30T00:19:33;13.63;;;10.47;;
8596;SDS011;4336;49.310;8.646;2023-03-30T00:22:03;15.77;;;10.57;;
8596;SDS011;4336;49.310;8.646;2023-03-30T00:24:30;19.10;;;10.30;;
8596;SDS011;4336;49.310;8.646;2023-03-30T00:26:56;13.37;;;10.30;;
8596;SDS011;4336;49.310;8.646;2023-03-30T00:29:22;12.07;;;10.77;;
8596;SDS011;4336;49.310;8.646;2023-03-30T00:31:48;15.57;;;11.27;;
8596;SDS011;4336;49.310;8.646;2023-03-30T00:34:14;12.93;;;10.00;;
8596;SDS011;4336;49.310;8.646;2023-03-30T00:36:40;10.03;;;8.87;;
8596;SDS011;4336;49.310;8.646;2023-03-30T00:39:06;14.13;;;11.27;;
8596;SDS011;4336;49.310;8.646;2023-03-30T00:41:33;15.37;;;10.97;;
8596;SDS011;4336;49.310;8.646;2023-03-30T00:44:01;14.57;;;10.83;;
8596;SDS011;4336;49.310;8.646;2023-03-30T00:46:28;13.30;;;10.90;;
8596;SDS011;4336;49.310;8.646;2023-03-30T00:49:02;14.53;;;9.97;;
8596;SDS011;4336;49.310;8.646;2023-03-30T00:51:31;14.13;;;10.80;;
8596;SDS011;4336;49.310;8.646;2023-03-30T00:54:02;13.97;;;10.23;;
8596;SDS011;4336;49.310;8.646;2023-03-30T00:56:30;14.20;;;10.77;;
8596;SDS011;4336;49.310;8.646;2023-03-30T00:58:56;12.60;;;10.57;;
8596;SDS011;4336;49.310;8.646;2023-03-30T01:01:22;14.47;;;8.93;;
8596;SDS011;4336;49.310;8.646;2023-03-30T01:03:53;14.77;;;8.53;;
8596;SDS011;4336;49.310;8.646;2023-03-30T01:06:21;17.20;;;11.07;;
8596;SDS011;4336;49.310;8.646;2023-03-30T01:08:49;15.30;;;10.83;;
8596;SDS011;4336;49.310;8.646;2023-03-30T01:11:15;17.63;;;11.10;;
8596;SDS011;4336;49.310;8.646;2023-03-30T01:13:43;14.57;;;10.50;;
8596;SDS011;4336;49.310;8.646;2023-03-30T01:24:13;17.07;;;10.67;;
8596;SDS011;4336;49.310;8.646;2023-03-30T01:29:14;13.07;;;8.37;;
8596;SDS011;4336;49.310;8.646;2023-03-30T01:32:29;13.00;;;9.63;;
8596;SDS011;4336;49.310;8.646;2023-03-30T01:34:34;13.93;;;9.00;;
8596;SDS011;4336;49.310;8.646;2023-03-30T01:37:12;10.80;;;9.63;;
8596;SDS011;4336;49.310;8.646;2023-03-30T01:42:16;13.70;;;10.67;;
8596;SDS011;4336;49.310;8.646;2023-03-30T01:44:53;19.07;;;11.73;;
8596;SDS011;4336;49.310;8.646;2023-03-30T01:47:22;18.77;;;14.67;;
8596;SDS011;4336;49.310;8.646;2023-03-30T01:50:02;25.10;;;11.20;;
8596;SDS011;4336;49.310;8.646;2023-03-30T01:55:08;21.30;;;10.57;;
8596;SDS011;4336;49.310;8.646;2023-03-30T01:57:44;17.37;;;9.47;;
8596;SDS011;4336;49.310;8.646;2023-03-30T02:00:14;16.27;;;11.07;;
8596;SDS011;4336;49.310;8.646;2023-03-30T02:02:47;18.20;;;10.73;;
8596;SDS011;4336;49.310;8.646;2023-03-30T02:05:15;13.73;;;9.83;;
8596;SDS011;4336;49.310;8.646;2023-03-30T02:07:43;17.37;;;9.53;;
8596;SDS011;4336;49.310;8.646;2023-03-30T02:10:11;13.33;;;9.50;;
8596;SDS011;4336;49.310;8.646;2023-03-30T02:12:39;17.13;;;10.23;;
8596;SDS011;4336;49.310;8.646;2023-03-30T02:15:06;16.47;;;11.23;;
8596;SDS011;4336;49.310;8.646;2023-03-30T02:17:34;18.37;;;10.37;;
8596;SDS011;4336;49.310;8.646;2023-03-30T02:20:03;18.27;;;10.90;;
8596;SDS011;4336;49.310;8.646;2023-03-30T02:22:33;14.23;;;10.50;;
8596;SDS011;4336;49.310;8.646;2023-03-30T02:24:59;19.50;;;10.33;;
8596;SDS011;4336;49.310;8.646;2023-03-30T02:27:27;18.50;;;10.03;;
8596;SDS011;4336;49.310;8.646;2023-03-30T02:29:53;17.10;;;10.13;;
8596;SDS011;4336;49.310;8.646;2023-03-30T02:32:24;16.00;;;10.83;;
8596;SDS011;4336;49.310;8.646;2023-03-30T02:40:42;19.97;;;11.43;;
8596;SDS011;4336;49.310;8.646;2023-03-30T02:48:52;16.13;;;9.50;;
8596;SDS011;4336;49.310;8.646;2023-03-30T02:54:35;19.97;;;10.97;;
8596;SDS011;4336;49.310;8.646;2023-03-30T02:57:25;19.47;;;10.93;;
8596;SDS011;4336;49.310;8.646;2023-03-30T03:00:05;17.47;;;10.47;;
8596;SDS011;4336;49.310;8.646;2023-03-30T03:02:36;23.07;;;11.60;;
8596;SDS011;4336;49.310;8.646;2023-03-30T03:05:17;16.40;;;10.53;;
8596;SDS011;4336;49.310;8.646;2023-03-30T03:07:50;23.37;;;10.67;;
8596;SDS011;4336;49.310;8.646;2023-03-30T03:10:16;19.10;;;10.90;;
8596;SDS011;4336;49.310;8.646;2023-03-30T03:12:42;15.00;;;10.20;;
8596;SDS011;4336;49.310;8.646;2023-03-30T03:15:10;18.63;;;11.27;;
8596;SDS011;4336;49.310;8.646;2023-03-30T03:17:42;23.73;;;11.23;;
8596;SDS011;4336;49.310;8.646;2023-03-30T03:20:10;20.13;;;10.23;;
8596;SDS011;4336;49.310;8.646;2023-03-30T03:22:36;14.93;;;10.83;;
8596;SDS011;4336;49.310;8.646;2023-03-30T03:25:02;19.07;;;10.67;;
8596;SDS011;4336;49.310;8.646;2023-03-30T03:27:41;24.50;;;10.63;;
8596;SDS011;4336;49.310;8.646;2023-03-30T03:30:15;18.53;;;10.63;;
8596;SDS011;4336;49.310;8.646;2023-03-30T03:32:48;17.77;;;10.60;;
8596;SDS011;4336;49.310;8.646;2023-03-30T03:35:15;18.07;;;10.50;;
8596;SDS011;4336;49.310;8.646;2023-03-30T03:37:42;26.53;;;13.13;;
8596;SDS011;4336;49.310;8.646;2023-03-30T03:40:08;25.17;;;13.43;;
8596;SDS011;4336;49.310;8.646;2023-03-30T03:42:36;20.70;;;11.87;;
8596;SDS011;4336;49.310;8.646;2023-03-30T03:45:10;17.73;;;10.53;;
8596;SDS011;4336;49.310;8.646;2023-03-30T03:47:49;19.47;;;9.90;;
8596;SDS011;4336;49.310;8.646;2023-03-30T03:50:17;19.83;;;11.13;;
8596;SDS011;4336;49.310;8.646;2023-03-30T03:52:43;19.77;;;10.90;;
8596;SDS011;4336;49.310;8.646;2023-03-30T03:55:10;23.50;;;10.80;;
8596;SDS011;4336;49.310;8.646;2023-03-30T03:57:40;16.80;;;10.57;;
8596;SDS011;4336;49.310;8.646;2023-03-30T04:00:06;23.33;;;10.87;;
8596;SDS011;4336;49.310;8.646;2023-03-30T04:02:42;19.37;;;11.10;;
8596;SDS011;4336;49.310;8.646;2023-03-30T04:05:09;21.10;;;11.40;;
8596;SDS011;4336;49.310;8.646;2023-03-30T04:07:36;20.67;;;11.43;;
8596;SDS011;4336;49.310;8.646;2023-03-30T04:10:03;20.00;;;11.70;;
8596;SDS011;4336;49.310;8.646;2023-03-30T04:12:40;20.00;;;11.50;;
8596;SDS011;4336;49.310;8.646;2023-03-30T04:15:24;27.13;;;11.50;;
8596;SDS011;4336;49.310;8.646;2023-03-30T04:18:17;21.87;;;12.50;;
8596;SDS011;4336;49.310;8.646;2023-03-30T04:21:03;23.03;;;12.00;;
8596;SDS011;4336;49.310;8.646;2023-03-30T04:23:41;25.47;;;10.70;;
8596;SDS011;4336;49.310;8.646;2023-03-30T04:26:47;21.67;;;9.97;;
8596;SDS011;4336;49.310;8.646;2023-03-30T04:29:32;27.97;;;11.57;;
8596;SDS011;4336;49.310;8.646;2023-03-30T04:32:16;18.30;;;9.87;;
8596;SDS011;4336;49.310;8.646;2023-03-30T04:34:58;32.80;;;12.37;;
8596;SDS011;4336;49.310;8.646;2023-03-30T04:37:43;24.03;;;11.13;;
8596;SDS011;4336;49.310;8.646;2023-03-30T04:40:30;24.90;;;11.80;;
8596;SDS011;4336;49.310;8.646;2023-03-30T04:43:21;23.50;;;11.93;;
8596;SDS011;4336;49.310;8.646;2023-03-30T04:46:18;25.40;;;13.50;;
8596;SDS011;4336;49.310;8.646;2023-03-30T04:49:20;27.07;;;13.80;;
8596;SDS011;4336;49.310;8.646;2023-03-30T04:51:49;33.90;;;13.60;;
8596;SDS011;4336;49.310;8.646;2023-03-30T04:54:34;28.67;;;16.17;;
8596;SDS011;4336;49.310;8.646;2023-03-30T04:57:19;29.57;;;16.67;;
8596;SDS011;4336;49.310;8.646;2023-03-30T05:00:04;23.57;;;16.00;;
8596;SDS011;4336;49.310;8.646;2023-03-30T05:02:50;30.90;;;14.87;;
8596;SDS011;4336;49.310;8.646;2023-03-30T05:05:42;24.70;;;13.20;;
8596;SDS011;4336;49.310;8.646;2023-03-30T05:08:40;30.40;;;13.93;;
8596;SDS011;4336;49.310;8.646;2023-03-30T05:11:21;25.77;;;13.40;;
8596;SDS011;4336;49.310;8.646;2023-03-30T05:14:11;26.37;;;14.00;;
8596;SDS011;4336;49.310;8.646;2023-03-30T05:16:47;23.63;;;13.40;;
8596;SDS011;4336;49.310;8.646;2023-03-30T05:19:27;28.60;;;13.30;;
8596;SDS011;4336;49.310;8.646;2023-03-30T05:22:23;23.20;;;13.40;;
8596;SDS011;4336;49.310;8.646;2023-03-30T05:25:00;28.43;;;14.80;;
8596;SDS011;4336;49.310;8.646;2023-03-30T05:27:45;24.83;;;14.03;;
8596;SDS011;4336;49.310;8.646;2023-03-30T05:30:40;26.20;;;14.00;;
8596;SDS011;4336;49.310;8.646;2023-03-30T05:33:44;26.37;;;13.47;;
8596;SDS011;4336;49.310;8.646;2023-03-30T05:36:29;25.47;;;14.00;;
8596;SDS011;4336;49.310;8.646;2023-03-30T05:39:05;26.03;;;15.10;;
8596;SDS011;4336;49.310;8.646;2023-03-30T05:41:49;27.53;;;15.23;;
8596;SDS011;4336;49.310;8.646;2023-03-30T05:44:26;32.03;;;14.30;;
8596;SDS011;4336;49.310;8.646;2023-03-30T05:47:11;26.57;;;15.27;;
8596;SDS011;4336;49.310;8.646;2023-03-30T05:49:50;32.37;;;17.13;;
8596;SDS011;4336;49.310;8.646;2023-03-30T05:52:23;33.17;;;16.80;;
8596;SDS011;4336;49.310;8.646;2023-03-30T05:54:55;38.23;;;16.23;;
8596;SDS011;4336;49.310;8.646;2023-03-30T05:57:42;27.20;;;14.90;;
8596;SDS011;4336;49.310;8.646;2023-03-30T06:00:19;27.47;;;15.43;;
8596;SDS011;4336;49.310;8.646;2023-03-30T06:02:58;30.90;;;14.50;;
8596;SDS011;4336;49.310;8.646;2023-03-30T06:05:28;32.00;;;15.67;;
8596;SDS011;4336;49.310;8.646;2023-03-30T06:07:58;36.63;;;14.27;;
8596;SDS011;4336;49.310;8.646;2023-03-30T06:10:25;34.10;;;14.10;;
8596;SDS011;4336;49.310;8.646;2023-03-30T06:12:52;36.80;;;13.13;;
8596;SDS011;4336;49.310;8.646;2023-03-30T06:15:37;36.80;;;15.03;;
8596;SDS011;4336;49.310;8.646;2023-03-30T06:18:06;32.00;;;14.13;;
8596;SDS011;4336;49.310;8.646;2023-03-30T06:20:35;32.87;;;14.00;;
8596;SDS011;4336;49.310;8.646;2023-03-30T06:23:02;34.03;;;14.17;;
8596;SDS011;4336;49.310;8.646;2023-03-30T06:25:29;27.37;;;13.20;;
8596;SDS011;4336;49.310;8.646;2023-03-30T06:27:56;29.30;;;13.57;;
8596;SDS011;4336;49.310;8.646;2023-03-30T06:30:23;31.70;;;14.23;;
8596;SDS011;4336;49.310;8.646;2023-03-30T06:32:52;28.83;;;12.27;;
8596;SDS011;4336;49.310;8.646;2023-03-30T06:35:23;35.40;;;13.50;;
8596;SDS011;4336;49.310;8.646;2023-03-30T06:37:50;30.90;;;14.10;;
8596;SDS011;4336;49.310;8.646;2023-03-30T06:40:18;26.27;;;13.53;;
8596;SDS011;4336;49.310;8.646;2023-03-30T06:42:47;26.57;;;13.47;;
8596;SDS011;4336;49.310;8.646;2023-03-30T06:45:26;28.13;;;13.63;;
8596;SDS011;4336;49.310;8.646;2023-03-30T06:47:53;29.00;;;13.70;;
8596;SDS011;4336;49.310;8.646;2023-03-30T06:50:20;28.33;;;13.80;;
8596;SDS011;4336;49.310;8.646;2023-03-30T06:53:00;27.07;;;14.00;;
8596;SDS011;4336;49.310;8.646;2023-03-30T06:55:36;36.50;;;15.77;;
8596;SDS011;4336;49.310;8.646;2023-03-30T06:58:02;27.93;;;13.53;;
8596;SDS011;4336;49.310;8.646;2023-03-30T07:00:28;38.13;;;13.83;;
8596;SDS011;4336;49.310;8.646;2023-03-30T07:03:14;27.37;;;11.43;;
8596;SDS011;4336;49.310;8.646;2023-03-30T07:05:50;28.90;;;14.63;;
8596;SDS011;4336;49.310;8.646;2023-03-30T07:08:33;26.97;;;14.97;;
8596;SDS011;4336;49.310;8.646;2023-03-30T07:11:00;30.23;;;15.47;;
8596;SDS011;4336;49.310;8.646;2023-03-30T07:13:29;29.50;;;13.33;;
8596;SDS011;4336;49.310;8.646;2023-03-30T07:15:56;25.83;;;14.07;;
8596;SDS011;4336;49.310;8.646;2023-03-30T07:18:22;26.70;;;16.03;;
8596;SDS011;4336;49.310;8.646;2023-03-30T07:20:48;27.00;;;14.97;;
8596;SDS011;4336;49.310;8.646;2023-03-30T07:23:18;28.30;;;14.10;;
8596;SDS011;4336;49.310;8.646;2023-03-30T07:25:46;25.80;;;12.63;;
8596;SDS011;4336;49.310;8.646;2023-03-30T07:28:21;28.50;;;15.20;;
8596;SDS011;4336;49.310;8.646;2023-03-30T07:30:47;30.57;;;14.53;;
8596;SDS011;4336;49.310;8.646;2023-03-30T07:33:14;31.67;;;16.07;;
8596;SDS011;4336;49.310;8.646;2023-03-30T07:35:43;23.17;;;14.80;;
8596;SDS011;4336;49.310;8.646;2023-03-30T07:38:10;28.33;;;14.97;;
8596;SDS011;4336;49.310;8.646;2023-03-30T07:40:41;31.47;;;14.17;;
8596;SDS011;4336;49.310;8.646;2023-03-30T07:43:07;31.63;;;14.97;;
8596;SDS011;4336;49.310;8.646;2023-03-30T07:45:34;29.53;;;14.97;;
8596;SDS011;4336;49.310;8.646;2023-03-30T07:48:03;29.20;;;14.90;;
8596;SDS011;4336;49.310;8.646;2023-03-30T07:50:30;27.90;;;13.90;;
8596;SDS011;4336;49.310;8.646;2023-03-30T07:52:59;27.97;;;15.13;;
8596;SDS011;4336;49.310;8.646;2023-03-30T07:55:25;28.57;;;12.60;;
8596;SDS011;4336;49.310;8.646;2023-03-30T07:57:59;29.47;;;15.30;;
8596;SDS011;4336;49.310;8.646;2023-03-30T08:00:25;26.17;;;12.93;;
8596;SDS011;4336;49.310;8.646;2023-03-30T08:03:10;47.73;;;15.80;;
8596;SDS011;4336;49.310;8.646;2023-03-30T08:05:37;32.27;;;16.30;;
8596;SDS011;4336;49.310;8.646;2023-03-30T08:08:12;35.60;;;17.00;;
8596;SDS011;4336;49.310;8.646;2023-03-30T08:10:38;30.60;;;14.30;;
8596;SDS011;4336;49.310;8.646;2023-03-30T08:13:05;26.03;;;14.50;;
8596;SDS011;4336;49.310;8.646;2023-03-30T08:15:31;35.20;;;13.87;;
8596;SDS011;4336;49.310;8.646;2023-03-30T08:17:58;24.00;;;14.70;;
8596;SDS011;4336;49.310;8.646;2023-03-30T08:20:28;33.10;;;15.73;;
8596;SDS011;4336;49.310;8.646;2023-03-30T08:22:55;30.40;;;15.13;;
8596;SDS011;4336;49.310;8.646;2023-03-30T08:25:21;28.27;;;14.60;;
8596;SDS011;4336;49.310;8.646;2023-03-30T08:27:47;24.63;;;14.33;;
8596;SDS011;4336;49.310;8.646;2023-03-30T08:30:13;25.77;;;14.70;;
8596;SDS011;4336;49.310;8.646;2023-03-30T08:32:40;30.80;;;15.30;;
8596;SDS011;4336;49.310;8.646;2023-03-30T08:35:06;29.07;;;12.93;;
8596;SDS011;4336;49.310;8.646;2023-03-30T08:37:33;24.73;;;14.67;;
8596;SDS011;4336;49.310;8.646;2023-03-30T08:39:59;22.07;;;12.07;;
8596;SDS011;4336;49.310;8.646;2023-03-30T08:43:08;24.20;;;13.23;;
8596;SDS011;4336;49.310;8.646;2023-03-30T08:45:15;22.10;;;14.00;;
8596;SDS011;4336;49.310;8.646;2023-03-30T08:47:43;24.33;;;12.33;;
8596;SDS011;4336;49.310;8.646;2023-03-30T08:52:39;24.73;;;13.80;;
8596;SDS011;4336;49.310;8.646;2023-03-30T08:55:20;22.57;;;13.10;;
8596;SDS011;4336;49.310;8.646;2023-03-30T09:05:50;16.03;;;11.30;;
8596;SDS011;4336;49.310;8.646;2023-03-30T09:08:21;23.43;;;12.87;;
8596;SDS011;4336;49.310;8.646;2023-03-30T09:10:58;22.03;;;12.00;;
8596;SDS011;4336;49.310;8.646;2023-03-30T09:13:27;18.73;;;12.00;;
8596;SDS011;4336;49.310;8.646;2023-03-30T09:18:37;17.37;;;12.07;;
8596;SDS011;4336;49.310;8.646;2023-03-30T09:21:04;22.67;;;12.47;;
8596;SDS011;4336;49.310;8.646;2023-03-30T09:23:31;19.93;;;10.37;;
8596;SDS011;4336;49.310;8.646;2023-03-30T09:28:26;18.03;;;12.10;;
8596;SDS011;4336;49.310;8.646;2023-03-30T09:30:59;19.60;;;11.73;;
8596;SDS011;4336;49.310;8.646;2023-03-30T09:38:44;20.47;;;11.77;;
8596;SDS011;4336;49.310;8.646;2023-03-30T09:43:40;16.30;;;9.53;;
8596;SDS011;4336;49.310;8.646;2023-03-30T09:46:13;16.07;;;10.40;;
8596;SDS011;4336;49.310;8.646;2023-03-30T09:48:41;19.00;;;12.47;;
8596;SDS011;4336;49.310;8.646;2023-03-30T09:51:14;18.97;;;11.63;;
8596;SDS011;4336;49.310;8.646;2023-03-30T09:53:42;19.10;;;11.93;;
8596;SDS011;4336;49.310;8.646;2023-03-30T09:56:15;16.23;;;11.20;;
8596;SDS011;4336;49.310;8.646;2023-03-30T09:58:42;16.73;;;9.97;;
8596;SDS011;4336;49.310;8.646;2023-03-30T10:01:12;15.53;;;11.43;;
8596;SDS011;4336;49.310;8.646;2023-03-30T10:03:41;15.50;;;9.43;;
8596;SDS011;4336;49.310;8.646;2023-03-30T10:06:08;16.47;;;11.40;;
8596;SDS011;4336;49.310;8.646;2023-03-30T10:08:58;18.50;;;11.80;;
8596;SDS011;4336;49.310;8.646;2023-03-30T10:11:42;23.37;;;15.47;;
8596;SDS011;4336;49.310;8.646;2023-03-30T10:16:47;15.27;;;10.93;;
8596;SDS011;4336;49.310;8.646;2023-03-30T10:19:20;16.73;;;11.37;;
8596;SDS011;4336;49.310;8.646;2023-03-30T10:21:46;17.30;;;10.50;;
8596;SDS011;4336;49.310;8.646;2023-03-30T10:26:39;16.27;;;10.63;;
8596;SDS011;4336;49.310;8.646;2023-03-30T10:29:09;17.90;;;11.33;;
8596;SDS011;4336;49.310;8.646;2023-03-30T10:31:37;15.43;;;9.93;;
8596;SDS011;4336;49.310;8.646;2023-03-30T10:34:04;18.60;;;11.47;;
8596;SDS011;4336;49.310;8.646;2023-03-30T10:36:33;15.43;;;8.90;;
8596;SDS011;4336;49.310;8.646;2023-03-30T10:41:39;16.17;;;10.80;;
8596;SDS011;4336;49.310;8.646;2023-03-30T10:44:12;19.43;;;10.90;;
8596;SDS011;4336;49.310;8.646;2023-03-30T10:46:40;16.17;;;10.03;;
8596;SDS011;4336;49.310;8.646;2023-03-30T10:49:10;15.47;;;10.77;;
8596;SDS011;4336;49.310;8.646;2023-03-30T10:51:44;22.20;;;11.00;;
8596;SDS011;4336;49.310;8.646;2023-03-30T10:56:50;16.30;;;11.00;;
8596;SDS011;4336;49.310;8.646;2023-03-30T11:04:47;13.97;;;8.53;;
8596;SDS011;4336;49.310;8.646;2023-03-30T11:07:23;16.10;;;10.80;;
8596;SDS011;4336;49.310;8.646;2023-03-30T11:09:53;13.20;;;10.30;;
8596;SDS011;4336;49.310;8.646;2023-03-30T11:12:20;14.43;;;10.37;;
8596;SDS011;4336;49.310;8.646;2023-03-30T11:14:59;11.97;;;9.10;;
8596;SDS011;4336;49.310;8.646;2023-03-30T11:17:37;13.57;;;10.40;;
8596;SDS011;4336;49.310;8.646;2023-03-30T11:20:23;14.63;;;10.13;;
8596;SDS011;4336;49.310;8.646;2023-03-30T11:26:19;15.30;;;9.97;;
8596;SDS011;4336;49.310;8.646;2023-03-30T11:31:10;9.73;;;8.23;;
8596;SDS011;4336;49.310;8.646;2023-03-30T11:33:58;10.50;;;9.30;;
8596;SDS011;4336;49.310;8.646;2023-03-30T11:39:29;12.10;;;9.23;;
8596;SDS011;4336;49.310;8.646;2023-03-30T11:44:40;11.63;;;9.43;;
8596;SDS011;4336;49.310;8.646;2023-03-30T11:47:26;11.77;;;8.80;;
8596;SDS011;4336;49.310;8.646;2023-03-30T11:52:55;16.77;;;12.67;;
8596;SDS011;4336;49.310;8.646;2023-03-30T11:58:26;11.23;;;10.03;;
8596;SDS011;4336;49.310;8.646;2023-03-30T12:01:07;9.93;;;7.53;;
8596;SDS011;4336;49.310;8.646;2023-03-30T12:03:42;12.30;;;9.80;;
8596;SDS011;4336;49.310;8.646;2023-03-30T12:06:14;11.13;;;9.33;;
8596;SDS011;4336;49.310;8.646;2023-03-30T12:14:34;14.30;;;11.90;;
8596;SDS011;4336;49.310;8.646;2023-03-30T12:17:22;13.50;;;9.27;;
8596;SDS011;4336;49.310;8.646;2023-03-30T12:20:05;13.03;;;8.87;;
8596;SDS011;4336;49.310;8.646;2023-03-30T12:22:52;12.53;;;11.17;;
8596;SDS011;4336;49.310;8.646;2023-03-30T12:28:28;13.87;;;11.57;;
8596;SDS011;4336;49.310;8.646;2023-03-30T12:31:10;12.63;;;11.00;;
8596;SDS011;4336;49.310;8.646;2023-03-30T12:33:49;15.37;;;10.83;;
8596;SDS011;4336;49.310;8.646;2023-03-30T12:39:03;17.37;;;12.87;;
8596;SDS011;4336;49.310;8.646;2023-03-30T12:41:48;15.20;;;11.73;;
8596;SDS011;4336;49.310;8.646;2023-03-30T12:44:23;13.97;;;11.03;;
8596;SDS011;4336;49.310;8.646;2023-03-30T12:47:16;12.60;;;11.20;;
8596;SDS011;4336;49.310;8.646;2023-03-30T12:55:40;10.30;;;9.30;;
8596;SDS011;4336;49.310;8.646;2023-03-30T13:03:40;12.43;;;11.03;;
8596;SDS011;4336;49.310;8.646;2023-03-30T13:06:39;13.10;;;10.87;;
8596;SDS011;4336;49.310;8.646;2023-03-30T13:11:42;10.50;;;9.33;;
8596;SDS011;4336;49.310;8.646;2023-03-30T13:24:34;11.93;;;10.57;;
8596;SDS011;4336;49.310;8.646;2023-03-30T13:29:47;14.67;;;10.43;;
8596;SDS011;4336;49.310;8.646;2023-03-30T13:43:03;11.97;;;10.67;;
8596;SDS011;4336;49.310;8.646;2023-03-30T13:48:37;13.00;;;9.33;;
8596;SDS011;4336;49.310;8.646;2023-03-30T13:51:25;13.70;;;9.63;;
8596;SDS011;4336;49.310;8.646;2023-03-30T13:53:56;12.53;;;10.63;;
8596;SDS011;4336;49.310;8.646;2023-03-30T13:56:35;12.23;;;10.33;;
8596;SDS011;4336;49.310;8.646;2023-03-30T13:59:03;13.37;;;9.77;;
8596;SDS011;4336;49.310;8.646;2023-03-30T14:01:34;12.67;;;8.83;;
8596;SDS011;4336;49.310;8.646;2023-03-30T14:04:02;10.30;;;8.47;;
8596;SDS011;4336;49.310;8.646;2023-03-30T14:06:30;11.00;;;8.97;;
8596;SDS011;4336;49.310;8.646;2023-03-30T14:13:57;8.43;;;7.37;;
8596;SDS011;4336;49.310;8.646;2023-03-30T14:16:25;10.23;;;8.33;;
8596;SDS011;4336;49.310;8.646;2023-03-30T14:18:52;11.83;;;9.33;;
8596;SDS011;4336;49.310;8.646;2023-03-30T14:21:42;10.60;;;9.50;;
8596;SDS011;4336;49.310;8.646;2023-03-30T14:24:11;11.60;;;9.33;;
8596;SDS011;4336;49.310;8.646;2023-03-30T14:26:40;10.10;;;7.77;;
8596;SDS011;4336;49.310;8.646;2023-03-30T14:29:09;13.30;;;9.17;;
8596;SDS011;4336;49.310;8.646;2023-03-30T14:31:40;13.00;;;10.10;;
8596;SDS011;4336;49.310;8.646;2023-03-30T14:36:57;15.30;;;9.90;;
8596;SDS011;4336;49.310;8.646;2023-03-30T14:39:31;11.60;;;10.27;;
8596;SDS011;4336;49.310;8.646;2023-03-30T14:42:04;11.23;;;9.97;;
8596;SDS011;4336;49.310;8.646;2023-03-30T14:44:36;11.00;;;9.67;;
8596;SDS011;4336;49.310;8.646;2023-03-30T14:47:03;9.93;;;8.60;;
8596;SDS011;4336;49.310;8.646;2023-03-30T14:49:29;11.00;;;9.90;;
8596;SDS011;4336;49.310;8.646;2023-03-30T14:51:59;10.97;;;9.87;;
8596;SDS011;4336;49.310;8.646;2023-03-30T14:54:32;12.17;;;9.03;;
8596;SDS011;4336;49.310;8.646;2023-03-30T14:57:02;10.80;;;8.97;;
8596;SDS011;4336;49.310;8.646;2023-03-30T14:59:31;12.43;;;10.07;;
8596;SDS011;4336;49.310;8.646;2023-03-30T15:01:58;15.33;;;10.33;;
8596;SDS011;4336;49.310;8.646;2023-03-30T15:04:26;12.97;;;9.67;;
8596;SDS011;4336;49.310;8.646;2023-03-30T15:06:56;14.27;;;9.17;;
8596;SDS011;4336;49.310;8.646;2023-03-30T15:09:23;11.47;;;10.23;;
8596;SDS011;4336;49.310;8.646;2023-03-30T15:14:23;11.57;;;9.33;;
8596;SDS011;4336;49.310;8.646;2023-03-30T15:16:49;10.53;;;9.33;;
8596;SDS011;4336;49.310;8.646;2023-03-30T15:19:22;11.37;;;9.13;;
8596;SDS011;4336;49.310;8.646;2023-03-30T15:21:50;16.13;;;10.90;;
8596;SDS011;4336;49.310;8.646;2023-03-30T15:24:19;10.23;;;8.87;;
8596;SDS011;4336;49.310;8.646;2023-03-30T15:26:50;11.17;;;8.93;;
8596;SDS011;4336;49.310;8.646;2023-03-30T15:29:16;12.27;;;10.43;;
8596;SDS011;4336;49.310;8.646;2023-03-30T15:31:43;13.57;;;10.03;;
8596;SDS011;4336;49.310;8.646;2023-03-30T15:34:15;10.77;;;9.20;;
8596;SDS011;4336;49.310;8.646;2023-03-30T15:36:42;13.03;;;9.60;;
8596;SDS011;4336;49.310;8.646;2023-03-30T15:39:24;11.73;;;10.40;;
8596;SDS011;4336;49.310;8.646;2023-03-30T15:42:03;12.80;;;9.27;;
8596;SDS011;4336;49.310;8.646;2023-03-30T15:44:38;11.03;;;9.93;;
8596;SDS011;4336;49.310;8.646;2023-03-30T15:47:07;14.13;;;10.20;;
8596;SDS011;4336;49.310;8.646;2023-03-30T15:49:39;13.67;;;10.53;;
8596;SDS011;4336;49.310;8.646;2023-03-30T15:52:10;13.70;;;9.20;;
8596;SDS011;4336;49.310;8.646;2023-03-30T15:54:40;10.30;;;8.53;;
8596;SDS011;4336;49.310;8.646;2023-03-30T15:59:57;11.80;;;8.93;;
8596;SDS011;4336;49.310;8.646;2023-03-30T16:05:00;14.07;;;11.30;;
8596;SDS011;4336;49.310;8.646;2023-03-30T16:07:26;12.80;;;11.47;;
8596;SDS011;4336;49.310;8.646;2023-03-30T16:09:53;12.83;;;8.93;;
8596;SDS011;4336;49.310;8.646;2023-03-30T16:12:20;12.47;;;10.17;;
8596;SDS011;4336;49.310;8.646;2023-03-30T16:14:51;11.97;;;10.53;;
8596;SDS011;4336;49.310;8.646;2023-03-30T16:17:17;9.67;;;8.30;;
8596;SDS011;4336;49.310;8.646;2023-03-30T16:19:43;8.77;;;6.90;;
8596;SDS011;4336;49.310;8.646;2023-03-30T16:22:10;17.87;;;9.13;;
8596;SDS011;4336;49.310;8.646;2023-03-30T16:24:37;11.70;;;9.40;;
8596;SDS011;4336;49.310;8.646;2023-03-30T16:27:03;11.23;;;9.50;;
8596;SDS011;4336;49.310;8.646;2023-03-30T16:29:30;11.57;;;10.37;;
8596;SDS011;4336;49.310;8.646;2023-03-30T16:31:56;10.27;;;8.90;;
8596;SDS011;4336;49.310;8.646;2023-03-30T16:34:22;13.33;;;11.60;;
8596;SDS011;4336;49.310;8.646;2023-03-30T16:36:48;11.60;;;10.40;;
8596;SDS011;4336;49.310;8.646;2023-03-30T16:39:16;13.30;;;9.33;;
8596;SDS011;4336;49.310;8.646;2023-03-30T16:41:42;12.27;;;10.63;;
8596;SDS011;4336;49.310;8.646;2023-03-30T16:44:09;11.80;;;8.67;;
8596;SDS011;4336;49.310;8.646;2023-03-30T16:46:35;12.10;;;9.63;;
8596;SDS011;4336;49.310;8.646;2023-03-30T16:49:01;15.83;;;11.60;;
8596;SDS011;4336;49.310;8.646;2023-03-30T16:51:27;14.07;;;9.40;;
8596;SDS011;4336;49.310;8.646;2023-03-30T16:53:53;12.60;;;10.50;;
8596;SDS011;4336;49.310;8.646;2023-03-30T16:56:19;9.83;;;8.10;;
8596;SDS011;4336;49.310;8.646;2023-03-30T16:58:46;13.60;;;9.70;;
8596;SDS011;4336;49.310;8.646;2023-03-30T17:01:12;17.10;;;13.67;;
8596;SDS011;4336;49.310;8.646;2023-03-30T17:03:42;16.93;;;10.90;;
8596;SDS011;4336;49.310;8.646;2023-03-30T17:06:08;12.10;;;9.60;;
8596;SDS011;4336;49.310;8.646;2023-03-30T17:08:35;15.63;;;11.53;;
8596;SDS011;4336;49.310;8.646;2023-03-30T17:11:01;14.23;;;9.50;;
8596;SDS011;4336;49.310;8.646;2023-03-30T17:13:32;10.57;;;7.73;;
8596;SDS011;4336;49.310;8.646;2023-03-30T17:15:58;13.97;;;11.03;;
8596;SDS011;4336;49.310;8.646;2023-03-30T17:18:25;17.40;;;11.67;;
8596;SDS011;4336;49.310;8.646;2023-03-30T17:20:52;14.33;;;11.60;;
8596;SDS011;4336;49.310;8.646;2023-03-30T17:23:19;18.03;;;13.57;;
8596;SDS011;4336;49.310;8.646;2023-03-30T17:25:46;12.57;;;9.27;;
8596;SDS011;4336;49.310;8.646;2023-03-30T17:30:46;12.43;;;10.90;;
8596;SDS011;4336;49.310;8.646;2023-03-30T17:33:12;13.23;;;11.50;;
8596;SDS011;4336;49.310;8.646;2023-03-30T17:35:38;11.50;;;10.13;;
8596;SDS011;4336;49.310;8.646;2023-03-30T17:38:05;16.80;;;13.87;;
8596;SDS011;4336;49.310;8.646;2023-03-30T17:40:33;16.60;;;12.80;;
8596;SDS011;4336;49.310;8.646;2023-03-30T17:43:06;18.97;;;12.73;;
8596;SDS011;4336;49.310;8.646;2023-03-30T17:45:33;20.87;;;12.67;;
8596;SDS011;4336;49.310;8.646;2023-03-30T17:48:00;18.37;;;11.57;;
8596;SDS011;4336;49.310;8.646;2023-03-30T17:50:28;17.93;;;11.67;;
8596;SDS011;4336;49.310;8.646;2023-03-30T17:52:54;13.80;;;11.37;;
8596;SDS011;4336;49.310;8.646;2023-03-30T17:55:22;21.83;;;14.50;;
8596;SDS011;4336;49.310;8.646;2023-03-30T17:57:48;17.23;;;12.73;;